Flight Track Log - Related Links

Times and Time Zones

All times are in EDT time to prevent confusion due to time zone crossing. See the SWA2093 flight status page for this flight to view local times or setup timezone preferences in your user account.

Time Position Orientation Groundspeed Altitude Reporting Facility
EDT Latitude Longitude Course Direction KTS MPH feet Rate Location/Type
Fri 07:53:02 PM 39.3167 -94.7167 351° North 154 177 1,700  Level Kansas City TRACON
Fri 07:53:40 PM 39.3433 -94.7222 351° North 165 190 2,700 2,100 Climbing Kansas City Center
Fri 07:54:42 PM 39.3628 -94.7931 290° West 243 280 5,200 3,048 Climbing Kansas City Center
Fri 07:55:44 PM 39.3453 -94.8894 257° West 288 331 9,000 3,366 Climbing Kansas City Center
Fri 07:56:45 PM 39.3217 -95.0167 257° West 344 396 12,100 3,317 Climbing Kansas City Center
Fri 07:57:47 PM 39.2967 -95.1517 257° West 370 426 15,800 3,339 Climbing Kansas City Center
Fri 07:58:49 PM 39.2717 -95.2853 256° West 382 440 19,000 3,194 Climbing Kansas City Center
Fri 07:59:51 PM 39.2436 -95.4308 256° West 389 448 22,400 2,000 Climbing Kansas City Center
Fri 08:00:52 PM 39.2200 -95.5628 257° West 391 450 23,100 1,366 Climbing Kansas City Center
Fri 08:01:54 PM 39.1953 -95.6942 256° West 395 455 25,200 2,129 Climbing Kansas City Center
Fri 08:02:56 PM 39.1375 -95.8389 243° Southwest 413 475 27,500 1,935 Climbing Kansas City Center
Fri 08:03:58 PM 39.0792 -95.9622 239° Southwest 421 484 29,200 1,210 Climbing Kansas City Center
Fri 08:05:00 PM 39.0067 -96.1086 238° Southwest 432 497 30,000 390 Climbing Kansas City Center
Fri 08:06:01 PM 38.9453 -96.2353 238° Southwest 435 501 30,000 488 Level Kansas City Center
Fri 08:07:03 PM 38.8733 -96.3803 238° Southwest 433 498 31,000 1,694 Climbing Kansas City Center
Fri 08:08:05 PM 38.8408 -96.4972 250° West 422 486 33,500 2,516 Climbing Kansas City Center
Fri 08:09:07 PM 38.8100 -96.6614 256° West 400 460 36,200 2,081 Climbing Kansas City Center
Fri 08:10:09 PM 38.7831 -96.7917 255° West 386 444 37,800 1,317 Climbing Kansas City Center
Fri 08:11:10 PM 38.7547 -96.9228 255° West 383 441 38,900 976 Climbing Kansas City Center
Fri 08:12:12 PM 38.7289 -97.0544 256° West 383 441 39,800 532 Climbing Kansas City Center
Fri 08:13:14 PM 38.7011 -97.1881 255° West 389 448 40,000 97 Climbing Kansas City Center
Fri 08:14:16 PM 38.6747 -97.3228 256° West 391 450 40,000  Level Kansas City Center
Fri 08:15:18 PM 38.6417 -97.4847 255° West 393 452 40,000  Level Kansas City Center
Fri 08:16:19 PM 38.6142 -97.6192 255° West 392 451 40,000  Level Kansas City Center
Fri 08:17:21 PM 38.5864 -97.7531 255° West 391 450 40,000  Level Kansas City Center
Fri 08:18:23 PM 38.5592 -97.8850 255° West 386 444 40,000  Level Kansas City Center
Fri 08:19:25 PM 38.5306 -98.0183 255° West 390 449 40,000  Level Kansas City Center
Fri 08:20:27 PM 38.5025 -98.1497 255° West 386 444 40,000  Level Kansas City Center
Fri 08:21:28 PM 38.4706 -98.3042 255° West 378 435 40,000  Level Kansas City Center
Fri 08:22:30 PM 38.4422 -98.4344 255° West 382 440 40,000  Level Kansas City Center
Fri 08:23:32 PM 38.4142 -98.5644 255° West 382 440 40,000  Level Kansas City Center
Fri 08:24:34 PM 38.3844 -98.6950 254° West 386 444 40,000  Level Kansas City Center
Fri 08:25:36 PM 38.3569 -98.8247 255° West 381 438 40,000  Level Kansas City Center
Fri 08:26:37 PM 38.3297 -98.9542 255° West 380 437 40,000  Level Kansas City Center
Fri 08:27:39 PM 38.3006 -99.0858 254° West 384 442 40,000  Level Kansas City Center
Fri 08:28:41 PM 38.2653 -99.2425 254° West 385 443 40,000  Level Kansas City Center
Fri 08:29:43 PM 38.2356 -99.3719 254° West 383 441 40,000  Level Kansas City Center
Fri 08:30:44 PM 38.2033 -99.5100 253° West 381 438 40,000  Level Kansas City Center
Fri 08:31:46 PM 38.1767 -99.6328 255° West 378 435 40,000  Level Kansas City Center
Fri 08:32:48 PM 38.1431 -99.7764 253° West 380 437 40,000  Level Kansas City Center
Fri 08:33:49 PM 38.1144 -99.8986 253° West 378 435 40,000  Level Kansas City Center
Fri 08:34:51 PM 38.0864 -100.0219 254° West 379 436 40,000  Level Kansas City Center
Fri 08:35:52 PM 38.0522 -100.1642 253° West 379 436 40,000  Level Kansas City Center
Fri 08:36:54 PM 38.0239 -100.2864 254° West 377 434 40,000  Level Kansas City Center
Fri 08:37:56 PM 37.9914 -100.4289 254° West 378 435 40,000  Level Kansas City Center
Fri 08:38:57 PM 37.9617 -100.5492 253° West 377 434 40,000  Level Kansas City Center
Fri 08:39:59 PM 37.9286 -100.6900 253° West 375 432 40,000  Level Kansas City Center
Fri 08:41:00 PM 37.8947 -100.8081 250° West 375 432 40,000  Level Kansas City Center
Fri 08:42:02 PM 37.8503 -100.9436 247° West 378 435 40,000  Level Kansas City Center
Fri 08:43:03 PM 37.8128 -101.0611 248° West 381 438 40,000  Level Kansas City Center
Fri 08:44:05 PM 37.7669 -101.1961 247° West 379 436 40,000  Level Kansas City Center
Fri 08:45:07 PM 37.7283 -101.3133 247° West 379 436 40,000  Level Kansas City Center
Fri 08:46:08 PM 37.6900 -101.4303 248° West 379 436 40,000  Level Kansas City Center
Fri 08:47:10 PM 37.6450 -101.5678 248° West 380 437 40,000  Level Kansas City Center
Fri 08:48:11 PM 37.6061 -101.6861 248° West 381 438 40,000  Level Kansas City Center
Fri 08:49:13 PM 37.5592 -101.8228 247° West 381 438 40,000  Level Kansas City Center
Fri 08:50:14 PM 37.5200 -101.9408 247° West 382 440 40,000  Level Kansas City Center
Fri 08:51:16 PM 37.4742 -102.0800 247° West 385 443 40,000  Level Kansas City Center
Fri 08:52:17 PM 37.4347 -102.1986 247° West 384 442 40,000  Level Kansas City Center
Fri 08:53:19 PM 37.3939 -102.3158 246° West 383 441 40,000  Level Kansas City Center
Fri 08:54:16 PM 37.3553 -102.4364 248° West 383 441 40,000  Level Albuquerque Center
Fri 08:55:18 PM 37.3075 -102.5739 246° West 384 442 40,000  Level Albuquerque Center
Fri 08:56:19 PM 37.2681 -102.6908 247° West 380 437 40,000  Level Albuquerque Center
Fri 08:57:21 PM 37.2186 -102.8278 246° West 385 443 40,000  Level Albuquerque Center
Fri 08:58:22 PM 37.1806 -102.9447 248° West 380 437 40,000  Level Albuquerque Center
Fri 08:59:24 PM 37.1314 -103.0547 241° Southwest 378 435 40,000  Level Albuquerque Center
Fri 09:00:25 PM 37.0706 -103.1831 239° Southwest 381 438 40,000  Level Albuquerque Center
Fri 09:01:27 PM 37.0183 -103.2906 239° Southwest 378 435 40,000  Level Albuquerque Center
Fri 09:02:28 PM 36.9575 -103.4169 239° Southwest 378 435 40,000  Level Albuquerque Center
Fri 09:03:30 PM 36.9069 -103.5250 240° Southwest 376 433 40,000  Level Albuquerque Center
Fri 09:04:31 PM 36.8575 -103.6342 241° Southwest 376 433 40,000  Level Albuquerque Center
Fri 09:05:33 PM 36.8014 -103.7586 241° Southwest 371 427 40,000  Level Albuquerque Center
Fri 09:06:34 PM 36.7539 -103.8669 241° Southwest 369 425 40,000  Level Albuquerque Center
Fri 09:07:36 PM 36.7072 -103.9761 242° Southwest 371 427 40,000  Level Albuquerque Center
Fri 09:08:37 PM 36.6494 -104.1067 241° Southwest 374 430 40,000  Level Albuquerque Center
Fri 09:09:39 PM 36.5981 -104.2231 241° Southwest 379 436 40,000  Level Albuquerque Center
Fri 09:10:40 PM 36.5486 -104.3394 242° Southwest 379 436 40,000  Level Albuquerque Center
Fri 09:11:42 PM 36.4975 -104.4561 241° Southwest 381 438 40,000  Level Albuquerque Center
Fri 09:12:43 PM 36.4458 -104.5711 241° Southwest 380 437 40,000  Level Albuquerque Center
Fri 09:13:45 PM 36.3961 -104.6878 242° Southwest 380 437 40,000  Level Albuquerque Center
Fri 09:14:46 PM 36.3447 -104.8056 242° Southwest 383 441 40,000  Level Albuquerque Center
Fri 09:15:47 PM 36.3092 -104.9311 251° West 384 442 40,000  Level Albuquerque Center
Fri 09:16:49 PM 36.2725 -105.0572 250° West 384 442 40,000  Level Albuquerque Center
Fri 09:17:50 PM 36.2292 -105.2056 250° West 389 448 40,000  Level Albuquerque Center
Fri 09:18:52 PM 36.1892 -105.3328 249° West 392 451 40,000  Level Albuquerque Center
Fri 09:19:53 PM 36.1531 -105.4575 250° West 386 444 40,000  Level Albuquerque Center
Fri 09:20:55 PM 36.1183 -105.5700 249° West 383 441 40,000  Level Albuquerque Center
Fri 09:21:56 PM 36.0819 -105.6928 250° West 382 440 40,000  Level Albuquerque Center
Fri 09:22:57 PM 36.0447 -105.8167 250° West 384 442 40,000  Level Albuquerque Center
Fri 09:23:59 PM 35.9997 -105.9658 250° West 387 445 40,000  Level Albuquerque Center
Fri 09:25:00 PM 35.9617 -106.0892 249° West 388 447 40,000  Level Albuquerque Center
Fri 09:26:01 PM 35.9242 -106.2128 249° West 389 448 40,000  Level Albuquerque Center
Fri 09:27:03 PM 35.8811 -106.3419 248° West 382 440 40,000  Level Albuquerque Center
Fri 09:28:04 PM 35.8428 -106.4628 249° West 380 437 40,000  Level Albuquerque Center
Fri 09:29:05 PM 35.8081 -106.5769 249° West 378 435 40,000  Level Albuquerque Center
Fri 09:30:07 PM 35.7664 -106.7103 249° West 374 430 40,000  Level Albuquerque Center
Fri 09:31:08 PM 35.7308 -106.8247 249° West 375 432 40,000  Level Albuquerque Center
Fri 09:32:10 PM 35.6875 -106.9606 249° West 379 436 40,000  Level Albuquerque Center
Fri 09:33:11 PM 35.6506 -107.0753 248° West 378 435 40,000  Level Albuquerque Center
Fri 09:34:12 PM 35.6156 -107.1867 249° West 368 423 40,000  Level Albuquerque Center
Fri 09:35:14 PM 35.5742 -107.3217 249° West 375 432 40,000  Level Albuquerque Center
Fri 09:36:15 PM 35.5361 -107.4350 248° West 375 432 40,000  Level Albuquerque Center
Fri 09:37:16 PM 35.5003 -107.5497 249° West 376 433 40,000  Level Albuquerque Center
Fri 09:38:18 PM 35.4556 -107.6822 248° West 376 433 40,000  Level Albuquerque Center
Fri 09:39:19 PM 35.4175 -107.7969 248° West 378 435 40,000  Level Albuquerque Center
Fri 09:40:20 PM 35.3719 -107.9317 248° West 379 436 40,000  Level Albuquerque Center
Fri 09:41:22 PM 35.3339 -108.0481 248° West 382 440 40,000  Level Albuquerque Center
Fri 09:42:23 PM 35.2953 -108.1614 247° West 379 436 40,000  Level Albuquerque Center
Fri 09:43:24 PM 35.2508 -108.2956 248° West 379 436 40,000  Level Albuquerque Center
Fri 09:44:25 PM 35.2117 -108.4097 247° West 379 436 40,000  Level Albuquerque Center
Fri 09:45:27 PM 35.1731 -108.5231 247° West 377 434 40,000  Level Albuquerque Center
Fri 09:46:28 PM 35.1283 -108.6550 248° West 376 433 40,000  Level Albuquerque Center
Fri 09:47:29 PM 35.0894 -108.7694 247° West 377 434 40,000  Level Albuquerque Center
Fri 09:48:30 PM 35.0428 -108.9028 247° West 380 437 40,000 -197 Level Albuquerque Center
Fri 09:49:31 PM 35.0028 -109.0161 247° West 378 435 39,600 -634 Descending Albuquerque Center
Fri 09:50:33 PM 34.9639 -109.1306 248° West 380 437 38,700 -976 Descending Albuquerque Center
Fri 09:51:34 PM 34.9169 -109.2636 247° West 381 438 37,600 -1,033 Descending Albuquerque Center
Fri 09:52:35 PM 34.8781 -109.3764 247° West 380 437 36,600 -787 Descending Albuquerque Center
Fri 09:53:36 PM 34.8372 -109.4919 247° West 383 441 36,000 -295 Descending Albuquerque Center
Fri 09:54:37 PM 34.7903 -109.6275 247° West 387 445 36,000  Level Albuquerque Center
Fri 09:55:39 PM 34.7494 -109.7419 247° West 386 444 36,000  Level Albuquerque Center
Fri 09:56:40 PM 34.7019 -109.8747 247° West 384 442 36,000  Level Albuquerque Center
Fri 09:57:41 PM 34.6594 -109.9881 246° West 384 442 36,000  Level Albuquerque Center
Fri 09:58:42 PM 34.6178 -110.1056 247° West 391 450 36,000  Level Albuquerque Center
Fri 09:59:43 PM 34.5694 -110.2442 247° West 398 458 36,000 -732 Level Albuquerque Center
Fri 10:00:45 PM 34.5228 -110.3528 242° Southwest 384 442 34,500 -1,512 Descending Albuquerque Center
Fri 10:01:46 PM 34.4853 -110.4625 248° West 393 452 32,900 -2,115 Descending Albuquerque Center
Fri 10:02:47 PM 34.4314 -110.6075 246° West 395 455 30,200 -2,410 Descending Albuquerque Center
Fri 10:03:48 PM 34.3878 -110.7211 245° Southwest 379 436 28,000 -2,115 Descending Albuquerque Center
Fri 10:04:49 PM 34.3344 -110.8264 238° Southwest 371 427 25,900 -2,115 Descending Albuquerque Center
Fri 10:05:50 PM 34.2619 -110.9169 226° Southwest 371 427 23,700 -2,115 Descending Albuquerque Center
Fri 10:06:51 PM 34.1922 -111.0050 226° Southwest 367 422 21,600 -2,049 Descending Albuquerque Center
Fri 10:07:53 PM 34.1256 -111.0906 227° Southwest 355 409 19,500 -2,195 Descending Albuquerque Center
Fri 10:08:54 PM 34.0622 -111.1739 227° Southwest 343 395 17,100 -2,164 Descending Albuquerque Center
Fri 10:09:55 PM 33.9981 -111.2556 227° Southwest 337 388 15,100 -1,967 Descending Albuquerque Center
Fri 10:10:56 PM 33.9369 -111.3336 227° Southwest 324 373 13,100 -1,475 Descending Albuquerque Center
Fri 10:11:57 PM 33.8769 -111.4089 226° Southwest 311 358 12,100 -1,082 Descending Albuquerque Center
Fri 10:12:58 PM 33.8114 -111.4650 215° Southwest 289 333 10,900 -1,131 Descending Albuquerque Center
Fri 10:13:59 PM 33.7500 -111.5192 216° Southwest 275 316 9,800 -927 Descending Albuquerque Center
Fri 10:15:01 PM 33.6919 -111.5686 215° Southwest 258 297 9,000 -878 Descending Albuquerque Center
Fri 10:16:02 PM 33.6250 -111.6250 215° Southwest 245 282 8,000 -885 Descending Albuquerque Center
Fri 10:17:03 PM 33.5706 -111.6706 215° Southwest 239 275 7,200 -836 Descending Albuquerque Center
Fri 10:18:04 PM 33.5153 -111.7181 216° Southwest 243 280 6,300 -1,033 Descending Albuquerque Center
Fri 10:19:05 PM 33.4825 -111.7850 240° Southwest 234 269 5,100 -1,268 Descending Albuquerque Center
Fri 10:20:07 PM 33.4542 -111.8508 243° Southwest 224 258 3,700 -1,296 Descending Albuquerque Center
Fri 10:21:10 PM 33.4333 -111.9167 249° West 162 186 2,400 -977 Descending Phoenix TRACON
Fri 10:22:16 PM 33.4333 -111.9667 270° West 129 148 1,600 -727 Descending Phoenix TRACON
Fri 10:25:00 PM 33.4343 -112.0116 270° West  Level Estimated

Login

Don't have an account? Register now (free) for customized features, flight alerts, and more!